Sunflower Satsuma1 — JG5189 — position and weather

sailwx.info

Track history (hours):
 
Tides and Currents Weather Stations Pressure Air Temp Water Temp Dewpoint Dewpoint Depression Visibility Wind Speed Wind Dir Waves Ship Positions

Sunflower Satsuma1

Last reported at 2018-Jun-20 12:45 UTC. Time now 2018-Jun-21 12:00 UTC.
Position N 34°25' E 134°12'.

Length 186 m.

Type: Passenger vessel. MMSI: 431319000.

Date/timePositionNaut miles runAvg speedWind from/ knotsBaromVisibWave heightAir tempDewpointWater temp
2018-Jun-20 12:45N 34°25' E 134°12'521.9
2018-Jun-20 12:30N 34°25' E 134°18'1122.6
2018-Jun-20 12:00N 34°29' E 134°31'1122.5
2018-Jun-20 11:30N 34°32' E 134°44'1321.3
2018-Jun-20 10:54N 34°38' E 134°58'819.9
2018-Jun-20 10:30N 34°36' E 135°07'1019.5
2018-Jun-20 10:00N 34°40' E 135°18'2 3.4
2018-Jun-20 09:22N 34°42' E 135°17'0 0.0
2018-Jun-20 08:52N 34°42' E 135°17'0 0.0
2018-Jun-20 08:28N 34°42' E 135°17'0 0.0
2018-Jun-20 05:15N 34°42' E 135°17'0 0.0
2018-Jun-20 04:57N 34°42' E 135°17'0 0.0
2018-Jun-20 04:28N 34°42' E 135°17'0 0.0
2018-Jun-20 03:58N 34°42' E 135°17'0 0.0
2018-Jun-20 03:28N 34°42' E 135°17'0 0.0
2018-Jun-20 02:57N 34°42' E 135°17'0 0.0
2018-Jun-20 02:28N 34°42' E 135°17'0 0.0
2018-Jun-20 01:58N 34°42' E 135°17'0 0.0
2018-Jun-20 01:28N 34°42' E 135°17'0 0.0
2018-Jun-20 00:57N 34°42' E 135°17'0 0.0
2018-Jun-20 00:21N 34°42' E 135°17'0 0.0
2018-Jun-19 23:52N 34°42' E 135°17'0 0.0
2018-Jun-19 23:28N 34°42' E 135°17'0 0.0
2018-Jun-19 22:58N 34°42' E 135°17'0 0.0
2018-Jun-19 22:28N 34°42' E 135°17'0 0.0
2018-Jun-19 21:46N 34°42' E 135°17'0 0.2
2018-Jun-19 21:31N 34°42' E 135°17'714.4
2018-Jun-19 21:01N 34°35' E 135°13'1020.1
2018-Jun-19 20:30N 34°37' E 135°01'1019.4
2018-Jun-19 20:00N 34°34' E 134°50'1020.6
2018-Jun-19 19:30N 34°29' E 134°39'1021.1
2018-Jun-19 19:01N 34°25' E 134°27'1120.6
2018-Jun-19 18:30N 34°23' E 134°14'16 0.5
2018-Jun-18 13:32N 34°24' E 133°55'714.7
2018-Jun-18 13:01N 34°27' E 134°04'723.7
2018-Jun-18 12:43N 34°25' E 134°12'523.0
2018-Jun-18 12:30N 34°24' E 134°18'1122.5
2018-Jun-18 12:00N 34°28' E 134°30'1122.6
2018-Jun-18 11:31N 34°33' E 134°43'1222.6
2018-Jun-18 10:59N 34°37' E 134°57'919.6
2018-Jun-18 10:31N 34°36' E 135°08'918.9
2018-Jun-18 10:01N 34°40' E 135°18'2 1.8
2018-Jun-18 09:00N 34°42' E 135°17'0 0.0
2018-Jun-18 08:12N 34°42' E 135°17'0 0.0
2018-Jun-18 07:48N 34°42' E 135°17'0 0.0
2018-Jun-18 07:30N 34°42' E 135°17'0 0.0
2018-Jun-18 06:54N 34°42' E 135°17'0 0.0
2018-Jun-18 06:18N 34°42' E 135°17'0 0.0
2018-Jun-18 06:00N 34°42' E 135°17'0 0.0
2018-Jun-18 05:18N 34°42' E 135°17'0 0.0
2018-Jun-18 05:00N 34°42' E 135°17'0 0.0
2018-Jun-18 04:30N 34°42' E 135°17'0 0.0
2018-Jun-18 04:00N 34°42' E 135°17'0 0.0
2018-Jun-18 03:30N 34°42' E 135°17'0 0.0
2018-Jun-18 03:00N 34°42' E 135°17'0 0.0
2018-Jun-18 02:30N 34°42' E 135°17'0 0.0
2018-Jun-18 01:00N 34°42' E 135°17'0 0.0
2018-Jun-18 00:24N 34°42' E 135°17'0 0.0
2018-Jun-18 00:00N 34°42' E 135°17'0 0.0
2018-Jun-17 23:18N 34°42' E 135°17'0 0.0
2018-Jun-17 23:00N 34°42' E 135°17'0 0.0
2018-Jun-17 22:30N 34°42' E 135°17'0 0.0
2018-Jun-17 22:00N 34°42' E 135°17'0 0.0
2018-Jun-17 21:30N 34°42' E 135°17'5 9.5
2018-Jun-17 21:00N 34°37' E 135°16'1020.2
2018-Jun-17 20:31N 34°34' E 135°05'1019.1
2018-Jun-17 20:01N 34°35' E 134°53'1121.7
2018-Jun-17 19:30N 34°30' E 134°41'1121.3
2018-Jun-17 19:01N 34°26' E 134°30'1121.1
2018-Jun-17 18:31N 34°24' E 134°17'19 0.7
2018-Jun-16 14:26N 34°24' E 133°54'814.5
2018-Jun-16 13:53N 34°27' E 134°03'1322.7
2018-Jun-16 13:20N 34°24' E 134°18'721.8
2018-Jun-16 13:00N 34°27' E 134°26'1122.1
2018-Jun-16 12:30N 34°31' E 134°39'1223.8
2018-Jun-16 12:01N 34°35' E 134°52'1223.4
2018-Jun-16 11:31N 34°36' E 135°06'1020.3
2018-Jun-16 11:01N 34°39' E 135°18'3 5.2
2018-Jun-16 10:30N 34°42' E 135°17'0 0.0
2018-Jun-16 10:00N 34°42' E 135°17'0 0.0
2018-Jun-16 09:29N 34°42' E 135°17'0 0.0
2018-Jun-16 08:53N 34°42' E 135°17'0 0.0
2018-Jun-16 08:23N 34°42' E 135°17'0 0.0
2018-Jun-16 07:59N 34°42' E 135°17'0 0.0
2018-Jun-16 07:29N 34°42' E 135°17'0 0.0
2018-Jun-16 06:23N 34°42' E 135°17'0 0.0
2018-Jun-16 05:59N 34°42' E 135°17'0 0.0
2018-Jun-16 05:29N 34°42' E 135°17'0 0.0
2018-Jun-16 04:17N 34°42' E 135°17'0 0.0
2018-Jun-16 03:59N 34°42' E 135°17'0 0.0
2018-Jun-16 03:29N 34°42' E 135°17'0 0.0
2018-Jun-16 02:59N 34°42' E 135°17'0 0.0
2018-Jun-16 01:41N 34°42' E 135°17'0 0.0
2018-Jun-16 01:29N 34°42' E 135°17'0 0.0
2018-Jun-16 00:59N 34°42' E 135°17'0 0.0
2018-Jun-16 00:23N 34°42' E 135°17'0 0.0
2018-Jun-15 23:53N 34°42' E 135°17'0 0.0
2018-Jun-15 23:23N 34°42' E 135°17'0 0.0
2018-Jun-15 23:00N 34°42' E 135°17'1 2.6
2018-Jun-15 22:30N 34°41' E 135°18'815.9
2018-Jun-15 22:00N 34°35' E 135°12'918.0
2018-Jun-15 21:31N 34°37' E 135°01'917.2
2018-Jun-15 21:00N 34°34' E 134°51'1121.3
2018-Jun-15 20:30N 34°30' E 134°40'1121.3
2018-Jun-15 20:00N 34°25' E 134°28'1221.4
2018-Jun-15 19:27N 34°24' E 134°13'15 0.5
2018-Jun-14 13:32N 34°25' E 133°56'313.5
2018-Jun-14 13:20N 34°25' E 133°59'1117.7
2018-Jun-14 12:44N 34°25' E 134°12'521.2
2018-Jun-14 12:30N 34°24' E 134°18'1020.8
2018-Jun-14 12:00N 34°28' E 134°29'1121.4
2018-Jun-14 11:30N 34°32' E 134°41'1223.4
2018-Jun-14 11:00N 34°36' E 134°55'1122.0
2018-Jun-14 10:30N 34°36' E 135°08'918.6
2018-Jun-14 10:00N 34°40' E 135°18'2 3.1
2018-Jun-14 09:30N 34°42' E 135°17'0 0.0
2018-Jun-14 08:54N 34°42' E 135°17'0 0.0
2018-Jun-14 08:12N 34°42' E 135°17'0 0.0
2018-Jun-14 07:54N 34°42' E 135°17'0 0.0
2018-Jun-14 07:30N 34°42' E 135°17'0 0.0
2018-Jun-14 07:00N 34°42' E 135°17'0 0.0
2018-Jun-14 06:30N 34°42' E 135°17'0 0.0
2018-Jun-14 06:00N 34°42' E 135°17'0 0.0
2018-Jun-14 05:30N 34°42' E 135°17'0 0.0
2018-Jun-14 04:48N 34°42' E 135°17'0 0.0
2018-Jun-14 04:30N 34°42' E 135°17'0 0.0
2018-Jun-14 03:54N 34°42' E 135°17'0 0.0
2018-Jun-14 03:30N 34°42' E 135°17'0 0.0
2018-Jun-14 02:54N 34°42' E 135°17'0 0.0
2018-Jun-14 02:30N 34°42' E 135°17'0 0.0
2018-Jun-14 02:00N 34°42' E 135°17'0 0.0
2018-Jun-14 01:30N 34°42' E 135°17'0 0.0
2018-Jun-14 01:00N 34°42' E 135°17'0 0.0
2018-Jun-14 00:30N 34°42' E 135°17'0 0.0
2018-Jun-14 00:00N 34°42' E 135°17'0 0.0
2018-Jun-13 23:24N 34°42' E 135°17'0 0.0
2018-Jun-13 23:00N 34°42' E 135°17'0 0.0
2018-Jun-13 22:30N 34°42' E 135°17'0 0.0
2018-Jun-13 22:00N 34°42' E 135°17'0 0.0
2018-Jun-13 21:30N 34°42' E 135°17'510.5
2018-Jun-13 21:00N 34°37' E 135°16'1121.1
2018-Jun-13 20:31N 34°36' E 135°03'1020.8
2018-Jun-13 20:00N 34°34' E 134°51'1122.2
2018-Jun-13 19:30N 34°29' E 134°39'1122.2
2018-Jun-13 19:00N 34°25' E 134°26'1122.0
2018-Jun-13 18:29N 34°24' E 134°12'8 0.3
2018-Jun-12 13:07N 34°27' E 134°03'821.9
2018-Jun-12 12:46N 34°25' E 134°12'621.7
2018-Jun-12 12:30N 34°25' E 134°19'1122.7
2018-Jun-12 12:00N 34°29' E 134°32'1122.9
2018-Jun-12 11:31N 34°33' E 134°45'1224.6
2018-Jun-12 11:00N 34°38' E 134°59'1122.6
2018-Jun-12 10:30N 34°37' E 135°13'612.1
2018-Jun-12 09:59N 34°42' E 135°17'0 0.0
2018-Jun-12 09:20N 34°42' E 135°17'0 0.0
2018-Jun-12 08:50N 34°42' E 135°17'0 0.0
2018-Jun-12 08:26N 34°42' E 135°17'0 0.0
2018-Jun-12 07:50N 34°42' E 135°17'0 0.0
2018-Jun-12 07:26N 34°42' E 135°17'0 0.0
2018-Jun-12 06:56N 34°42' E 135°17'0 0.0
2018-Jun-12 06:02N 34°42' E 135°17'0 0.0
2018-Jun-12 05:32N 34°42' E 135°17'0 0.0
2018-Jun-12 05:20N 34°42' E 135°17'0 0.0
2018-Jun-12 04:32N 34°42' E 135°17'0 0.0
2018-Jun-12 04:26N 34°42' E 135°17'0 0.0
2018-Jun-12 02:44N 34°42' E 135°17'0 0.0
2018-Jun-12 02:20N 34°42' E 135°17'0 0.0
2018-Jun-12 01:50N 34°42' E 135°17'0 0.0
2018-Jun-12 01:26N 34°42' E 135°17'0 0.0
2018-Jun-12 00:56N 34°42' E 135°17'0 0.0
2018-Jun-12 00:20N 34°42' E 135°17'0 0.0
2018-Jun-11 23:56N 34°42' E 135°17'0 0.0
2018-Jun-11 23:20N 34°42' E 135°17'0 0.0
2018-Jun-11 22:56N 34°42' E 135°17'0 0.0
2018-Jun-11 22:26N 34°42' E 135°17'0 0.1
2018-Jun-11 22:00N 34°42' E 135°17'510.6
2018-Jun-11 21:30N 34°37' E 135°16'1020.4
2018-Jun-11 21:00N 34°37' E 135°03'713.2
2018-Jun-11 20:31N 34°36' E 134°55'1121.5
2018-Jun-11 20:00N 34°31' E 134°44'1122.5
2018-Jun-11 19:31N 34°27' E 134°31'1122.4
2018-Jun-11 19:00N 34°24' E 134°18'30 1.1
2018-Jun-10 14:25N 34°21' E 133°42'2516.0
2018-Jun-10 12:52N 34°25' E 134°11'  
Track history (hours):
 
Tides and Currents Weather Stations Pressure Air Temp Water Temp Dewpoint Dewpoint Depression Visibility Wind Speed Wind Dir Waves Ship Positions

Sunflower Satsuma1

Last reported at 2018-Jun-20 12:45 UTC. Time now 2018-Jun-21 12:00 UTC.
Position N 34°25' E 134°12'.

Length 186 m.

Type: Passenger vessel. MMSI: 431319000.

Date/timePositionNaut miles runAvg speedWind from/ knotsBaromVisibWave heightAir tempDewpointWater temp
2018-Jun-20 12:45N 34°25' E 134°12'521.9
2018-Jun-20 12:30N 34°25' E 134°18'1122.6
2018-Jun-20 12:00N 34°29' E 134°31'1122.5
2018-Jun-20 11:30N 34°32' E 134°44'1321.3
2018-Jun-20 10:54N 34°38' E 134°58'819.9
2018-Jun-20 10:30N 34°36' E 135°07'1019.5
2018-Jun-20 10:00N 34°40' E 135°18'2 3.4
2018-Jun-20 09:22N 34°42' E 135°17'0 0.0
2018-Jun-20 08:52N 34°42' E 135°17'0 0.0
2018-Jun-20 08:28N 34°42' E 135°17'0 0.0
2018-Jun-20 05:15N 34°42' E 135°17'0 0.0
2018-Jun-20 04:57N 34°42' E 135°17'0 0.0
2018-Jun-20 04:28N 34°42' E 135°17'0 0.0
2018-Jun-20 03:58N 34°42' E 135°17'0 0.0
2018-Jun-20 03:28N 34°42' E 135°17'0 0.0
2018-Jun-20 02:57N 34°42' E 135°17'0 0.0
2018-Jun-20 02:28N 34°42' E 135°17'0 0.0
2018-Jun-20 01:58N 34°42' E 135°17'0 0.0
2018-Jun-20 01:28N 34°42' E 135°17'0 0.0
2018-Jun-20 00:57N 34°42' E 135°17'0 0.0
2018-Jun-20 00:21N 34°42' E 135°17'0 0.0
2018-Jun-19 23:52N 34°42' E 135°17'0 0.0
2018-Jun-19 23:28N 34°42' E 135°17'0 0.0
2018-Jun-19 22:58N 34°42' E 135°17'0 0.0
2018-Jun-19 22:28N 34°42' E 135°17'0 0.0
2018-Jun-19 21:46N 34°42' E 135°17'0 0.2
2018-Jun-19 21:31N 34°42' E 135°17'714.4
2018-Jun-19 21:01N 34°35' E 135°13'1020.1
2018-Jun-19 20:30N 34°37' E 135°01'1019.4
2018-Jun-19 20:00N 34°34' E 134°50'1020.6
2018-Jun-19 19:30N 34°29' E 134°39'1021.1
2018-Jun-19 19:01N 34°25' E 134°27'1120.6
2018-Jun-19 18:30N 34°23' E 134°14'16 0.5
2018-Jun-18 13:32N 34°24' E 133°55'714.7
2018-Jun-18 13:01N 34°27' E 134°04'723.7
2018-Jun-18 12:43N 34°25' E 134°12'523.0
2018-Jun-18 12:30N 34°24' E 134°18'1122.5
2018-Jun-18 12:00N 34°28' E 134°30'1122.6
2018-Jun-18 11:31N 34°33' E 134°43'1222.6
2018-Jun-18 10:59N 34°37' E 134°57'919.6
2018-Jun-18 10:31N 34°36' E 135°08'918.9
2018-Jun-18 10:01N 34°40' E 135°18'2 1.8
2018-Jun-18 09:00N 34°42' E 135°17'0 0.0
2018-Jun-18 08:12N 34°42' E 135°17'0 0.0
2018-Jun-18 07:48N 34°42' E 135°17'0 0.0
2018-Jun-18 07:30N 34°42' E 135°17'0 0.0
2018-Jun-18 06:54N 34°42' E 135°17'0 0.0
2018-Jun-18 06:18N 34°42' E 135°17'0 0.0
2018-Jun-18 06:00N 34°42' E 135°17'0 0.0
2018-Jun-18 05:18N 34°42' E 135°17'0 0.0
2018-Jun-18 05:00N 34°42' E 135°17'0 0.0
2018-Jun-18 04:30N 34°42' E 135°17'0 0.0
2018-Jun-18 04:00N 34°42' E 135°17'0 0.0
2018-Jun-18 03:30N 34°42' E 135°17'0 0.0
2018-Jun-18 03:00N 34°42' E 135°17'0 0.0
2018-Jun-18 02:30N 34°42' E 135°17'0 0.0
2018-Jun-18 01:00N 34°42' E 135°17'0 0.0
2018-Jun-18 00:24N 34°42' E 135°17'0 0.0
2018-Jun-18 00:00N 34°42' E 135°17'0 0.0
2018-Jun-17 23:18N 34°42' E 135°17'0 0.0
2018-Jun-17 23:00N 34°42' E 135°17'0 0.0
2018-Jun-17 22:30N 34°42' E 135°17'0 0.0
2018-Jun-17 22:00N 34°42' E 135°17'0 0.0
2018-Jun-17 21:30N 34°42' E 135°17'5 9.5
2018-Jun-17 21:00N 34°37' E 135°16'1020.2
2018-Jun-17 20:31N 34°34' E 135°05'1019.1
2018-Jun-17 20:01N 34°35' E 134°53'1121.7
2018-Jun-17 19:30N 34°30' E 134°41'1121.3
2018-Jun-17 19:01N 34°26' E 134°30'1121.1
2018-Jun-17 18:31N 34°24' E 134°17'19 0.7
2018-Jun-16 14:26N 34°24' E 133°54'814.5
2018-Jun-16 13:53N 34°27' E 134°03'1322.7
2018-Jun-16 13:20N 34°24' E 134°18'721.8
2018-Jun-16 13:00N 34°27' E 134°26'1122.1
2018-Jun-16 12:30N 34°31' E 134°39'1223.8
2018-Jun-16 12:01N 34°35' E 134°52'1223.4
2018-Jun-16 11:31N 34°36' E 135°06'1020.3
2018-Jun-16 11:01N 34°39' E 135°18'3 5.2
2018-Jun-16 10:30N 34°42' E 135°17'0 0.0
2018-Jun-16 10:00N 34°42' E 135°17'0 0.0
2018-Jun-16 09:29N 34°42' E 135°17'0 0.0
2018-Jun-16 08:53N 34°42' E 135°17'0 0.0
2018-Jun-16 08:23N 34°42' E 135°17'0 0.0
2018-Jun-16 07:59N 34°42' E 135°17'0 0.0
2018-Jun-16 07:29N 34°42' E 135°17'0 0.0
2018-Jun-16 06:23N 34°42' E 135°17'0 0.0
2018-Jun-16 05:59N 34°42' E 135°17'0 0.0
2018-Jun-16 05:29N 34°42' E 135°17'0 0.0
2018-Jun-16 04:17N 34°42' E 135°17'0 0.0
2018-Jun-16 03:59N 34°42' E 135°17'0 0.0
2018-Jun-16 03:29N 34°42' E 135°17'0 0.0
2018-Jun-16 02:59N 34°42' E 135°17'0 0.0
2018-Jun-16 01:41N 34°42' E 135°17'0 0.0
2018-Jun-16 01:29N 34°42' E 135°17'0 0.0
2018-Jun-16 00:59N 34°42' E 135°17'0 0.0
2018-Jun-16 00:23N 34°42' E 135°17'0 0.0
2018-Jun-15 23:53N 34°42' E 135°17'0 0.0
2018-Jun-15 23:23N 34°42' E 135°17'0 0.0
2018-Jun-15 23:00N 34°42' E 135°17'1 2.6
2018-Jun-15 22:30N 34°41' E 135°18'815.9
2018-Jun-15 22:00N 34°35' E 135°12'918.0
2018-Jun-15 21:31N 34°37' E 135°01'917.2
2018-Jun-15 21:00N 34°34' E 134°51'1121.3
2018-Jun-15 20:30N 34°30' E 134°40'1121.3
2018-Jun-15 20:00N 34°25' E 134°28'1221.4
2018-Jun-15 19:27N 34°24' E 134°13'15 0.5
2018-Jun-14 13:32N 34°25' E 133°56'313.5
2018-Jun-14 13:20N 34°25' E 133°59'1117.7
2018-Jun-14 12:44N 34°25' E 134°12'521.2
2018-Jun-14 12:30N 34°24' E 134°18'1020.8
2018-Jun-14 12:00N 34°28' E 134°29'1121.4
2018-Jun-14 11:30N 34°32' E 134°41'1223.4
2018-Jun-14 11:00N 34°36' E 134°55'1122.0
2018-Jun-14 10:30N 34°36' E 135°08'918.6
2018-Jun-14 10:00N 34°40' E 135°18'2 3.1
2018-Jun-14 09:30N 34°42' E 135°17'0 0.0
2018-Jun-14 08:54N 34°42' E 135°17'0 0.0
2018-Jun-14 08:12N 34°42' E 135°17'0 0.0
2018-Jun-14 07:54N 34°42' E 135°17'0 0.0
2018-Jun-14 07:30N 34°42' E 135°17'0 0.0
2018-Jun-14 07:00N 34°42' E 135°17'0 0.0
2018-Jun-14 06:30N 34°42' E 135°17'0 0.0
2018-Jun-14 06:00N 34°42' E 135°17'0 0.0
2018-Jun-14 05:30N 34°42' E 135°17'0 0.0
2018-Jun-14 04:48N 34°42' E 135°17'0 0.0
2018-Jun-14 04:30N 34°42' E 135°17'0 0.0
2018-Jun-14 03:54N 34°42' E 135°17'0 0.0
2018-Jun-14 03:30N 34°42' E 135°17'0 0.0
2018-Jun-14 02:54N 34°42' E 135°17'0 0.0
2018-Jun-14 02:30N 34°42' E 135°17'0 0.0
2018-Jun-14 02:00N 34°42' E 135°17'0 0.0
2018-Jun-14 01:30N 34°42' E 135°17'0 0.0
2018-Jun-14 01:00N 34°42' E 135°17'0 0.0
2018-Jun-14 00:30N 34°42' E 135°17'0 0.0
2018-Jun-14 00:00N 34°42' E 135°17'0 0.0
2018-Jun-13 23:24N 34°42' E 135°17'0 0.0
2018-Jun-13 23:00N 34°42' E 135°17'0 0.0
2018-Jun-13 22:30N 34°42' E 135°17'0 0.0
2018-Jun-13 22:00N 34°42' E 135°17'0 0.0
2018-Jun-13 21:30N 34°42' E 135°17'510.5
2018-Jun-13 21:00N 34°37' E 135°16'1121.1
2018-Jun-13 20:31N 34°36' E 135°03'1020.8
2018-Jun-13 20:00N 34°34' E 134°51'1122.2
2018-Jun-13 19:30N 34°29' E 134°39'1122.2
2018-Jun-13 19:00N 34°25' E 134°26'1122.0
2018-Jun-13 18:29N 34°24' E 134°12'8 0.3
2018-Jun-12 13:07N 34°27' E 134°03'821.9
2018-Jun-12 12:46N 34°25' E 134°12'621.7
2018-Jun-12 12:30N 34°25' E 134°19'1122.7
2018-Jun-12 12:00N 34°29' E 134°32'1122.9
2018-Jun-12 11:31N 34°33' E 134°45'1224.6
2018-Jun-12 11:00N 34°38' E 134°59'1122.6
2018-Jun-12 10:30N 34°37' E 135°13'612.1
2018-Jun-12 09:59N 34°42' E 135°17'0 0.0
2018-Jun-12 09:20N 34°42' E 135°17'0 0.0
2018-Jun-12 08:50N 34°42' E 135°17'0 0.0
2018-Jun-12 08:26N 34°42' E 135°17'0 0.0
2018-Jun-12 07:50N 34°42' E 135°17'0 0.0
2018-Jun-12 07:26N 34°42' E 135°17'0 0.0
2018-Jun-12 06:56N 34°42' E 135°17'0 0.0
2018-Jun-12 06:02N 34°42' E 135°17'0 0.0
2018-Jun-12 05:32N 34°42' E 135°17'0 0.0
2018-Jun-12 05:20N 34°42' E 135°17'0 0.0
2018-Jun-12 04:32N 34°42' E 135°17'0 0.0
2018-Jun-12 04:26N 34°42' E 135°17'0 0.0
2018-Jun-12 02:44N 34°42' E 135°17'0 0.0
2018-Jun-12 02:20N 34°42' E 135°17'0 0.0
2018-Jun-12 01:50N 34°42' E 135°17'0 0.0
2018-Jun-12 01:26N 34°42' E 135°17'0 0.0
2018-Jun-12 00:56N 34°42' E 135°17'0 0.0
2018-Jun-12 00:20N 34°42' E 135°17'0 0.0
2018-Jun-11 23:56N 34°42' E 135°17'0 0.0
2018-Jun-11 23:20N 34°42' E 135°17'0 0.0
2018-Jun-11 22:56N 34°42' E 135°17'0 0.0
2018-Jun-11 22:26N 34°42' E 135°17'0 0.1
2018-Jun-11 22:00N 34°42' E 135°17'510.6
2018-Jun-11 21:30N 34°37' E 135°16'1020.4
2018-Jun-11 21:00N 34°37' E 135°03'713.2
2018-Jun-11 20:31N 34°36' E 134°55'1121.5
2018-Jun-11 20:00N 34°31' E 134°44'1122.5
2018-Jun-11 19:31N 34°27' E 134°31'1122.4
2018-Jun-11 19:00N 34°24' E 134°18'30 1.1
2018-Jun-10 14:25N 34°21' E 133°42'2516.0
2018-Jun-10 12:52N 34°25' E 134°11'  

Dump ship's entire track history